Jessica S. Settoon — WDD9545 — position and weather

sailwx.info

Track history (hours):
 
Tides and Currents Weather Stations Pressure Air Temp Water Temp Dewpoint Dewpoint Depression Visibility Wind Speed Wind Dir Waves Ship Positions

Jessica S. Settoon

Owner: Settoon Towing LLC, Houma, LA. More information available from US FCC via Universal Licensing System and Coast Guard Vessel Documentation Center.

Last reported at 2015-Apr-01 04:21 UTC. Time now 2015-Apr-02 04:29 UTC.
Position N 29°38' W 090°56'.

Length 17 m; draft 3 m.

Type: Tug. MMSI: 367312940.

Date/timePositionNaut miles runAvg speedWind from/ knotsBaromVisibWave heightAir tempDewpointWater temp
2015-Apr-01 04:21N 29°38' W 090°56'  
2015-Mar-27 00:29N 29°36' W 090°58'2 0.1
2015-Mar-26 09:25N 29°34' W 090°56'5 5.7
2015-Mar-26 08:34N 29°32' W 090°51'5 5.2
2015-Mar-26 07:33N 29°33' W 090°45'3 2.9
2015-Mar-26 06:33N 29°31' W 090°42'6 6.0
2015-Mar-26 05:33N 29°25' W 090°43'5 0.1
2015-Mar-24 13:24N 29°25' W 090°49'2 2.3
2015-Mar-24 12:33N 29°25' W 090°47'3 2.6
2015-Mar-24 11:29N 29°24' W 090°44'7 7.7
2015-Mar-24 10:34N 29°31' W 090°42'3 3.3
2015-Mar-24 09:33N 29°34' W 090°45'5 4.5
2015-Mar-24 08:29N 29°32' W 090°50'  
Track history (hours):
 
Tides and Currents Weather Stations Pressure Air Temp Water Temp Dewpoint Dewpoint Depression Visibility Wind Speed Wind Dir Waves Ship Positions

Jessica S. Settoon

Owner: Settoon Towing LLC, Houma, LA. More information available from US FCC via Universal Licensing System and Coast Guard Vessel Documentation Center.

Last reported at 2015-Apr-01 04:21 UTC. Time now 2015-Apr-02 04:29 UTC.
Position N 29°38' W 090°56'.

Length 17 m; draft 3 m.

Type: Tug. MMSI: 367312940.

Date/timePositionNaut miles runAvg speedWind from/ knotsBaromVisibWave heightAir tempDewpointWater temp
2015-Apr-01 04:21N 29°38' W 090°56'  
2015-Mar-27 00:29N 29°36' W 090°58'2 0.1
2015-Mar-26 09:25N 29°34' W 090°56'5 5.7
2015-Mar-26 08:34N 29°32' W 090°51'5 5.2
2015-Mar-26 07:33N 29°33' W 090°45'3 2.9
2015-Mar-26 06:33N 29°31' W 090°42'6 6.0
2015-Mar-26 05:33N 29°25' W 090°43'5 0.1
2015-Mar-24 13:24N 29°25' W 090°49'2 2.3
2015-Mar-24 12:33N 29°25' W 090°47'3 2.6
2015-Mar-24 11:29N 29°24' W 090°44'7 7.7
2015-Mar-24 10:34N 29°31' W 090°42'3 3.3
2015-Mar-24 09:33N 29°34' W 090°45'5 4.5
2015-Mar-24 08:29N 29°32' W 090°50'  

Dump ship's entire track history